Aérodrome :
LOGIN :

S'inscrire | Disclaimer

   EN    FR    IT 

 










Légende :    VFR   VFR Marginal   IFR   IFR Intensif   IFR Très Intensif
Visi : 
Plafond : 
>= 8 km
>= 3000ft
5 à 8 km
1000 à 3000 ft
1500m à 5 km
500 à 1000 ft
800 à 1500m
200 à 500 ft
< 800m
< 200 ft
Symboles :   Orages  Brouillard  Fortes neiges  Fortes précipitations  Vent > 20 kt
SIGMETs :   Divers  Orages  Givrage  Turbulence  Onde Orograph.  Cendres Volcan.







- Altitude de l'aérodrome : 3368 ft


LSGC - Les Eplatures

DERNIER METAR :
  • 280250Z AUTO 24006KT 210V290 0700 SN VV004 //////TCU M00/M00 Q1000

METARs EXPIRÉS :
  • 280220Z AUTO 25007KT 0600 SN VV004 00/00 Q1000
  • 280150Z AUTO 23007KT 190V260 1000 SN VV004 SCT///CB 00/00 Q1000
  • 280120Z AUTO 24010KT 190V280 1300 SN VV006 SCT///CB 01/01 Q0999
  • 280050Z AUTO 26019G31KT 230V300 1800 SN VV009 //////TCU 02/M00 Q1000
  • 280020Z AUTO 23020G36KT 180V260 9999 -RA BKN031 SCT036 07/02 Q0999 REDZ

Prévision TAF périmée.
Pas de NOTAMs connus pour ce terrain.
2 SIGMETs publiés pour la FIR Switzerland (LSAS) :
 
Orages noyés dans la masse
LSAS SIGMET 3 VALID 280300/280400 LSZH
LSAS SWITZERLAND FIR/UIR EMBD TS OBS W OF LINE N4558 E00655 - N4750 E00831 TOP FL270 MOV E WKN=
Turbulence forte
LSAS SIGMET 1 VALID 280100/280400 LSZH
LSAS SWITZERLAND FIR SEV TURB FCST W OF LINE N4559 E00642 - N4750 E00816 SFC/FL090 MOV E NC=



MET'MAP, la Météo Aéronautique d'un coup d'oeil ! - Copyright ORBIFLY Décembre 2007 - Disclaimer

ORBIFLY MET'MAP TEAM :

Programmation & Développement : Alexandra Zaïnal
Conception & Développement : Baudouin d'Aumeries
Co-Programmation & Développement : Marc-Olivier Méhu
Soutien technique & logistique : Manuel Goepfert

Contact : metmap@orbifly.com




SOURCES & CREDITS :

   NOAA